sensor_id;sensor_type;location;lat;lon;timestamp;P1;durP1;ratioP1;P2;durP2;ratioP2
55692;SDS011;41590;53.366;5.212;2022-08-05T00:00:23;5.82;;;1.80;;
55692;SDS011;41590;53.366;5.212;2022-08-05T00:02:49;8.00;;;1.98;;
55692;SDS011;41590;53.366;5.212;2022-08-05T00:05:19;11.43;;;1.98;;
55692;SDS011;41590;53.366;5.212;2022-08-05T00:10:51;5.07;;;1.80;;
55692;SDS011;41590;53.366;5.212;2022-08-05T00:15:56;9.15;;;2.25;;
55692;SDS011;41590;53.366;5.212;2022-08-05T00:18:26;4.53;;;2.17;;
55692;SDS011;41590;53.366;5.212;2022-08-05T00:20:54;6.00;;;2.00;;
55692;SDS011;41590;53.366;5.212;2022-08-05T00:23:20;3.33;;;1.52;;
55692;SDS011;41590;53.366;5.212;2022-08-05T00:28:22;2.50;;;1.50;;
55692;SDS011;41590;53.366;5.212;2022-08-05T00:30:49;3.80;;;1.88;;
55692;SDS011;41590;53.366;5.212;2022-08-05T00:33:19;2.83;;;1.55;;
55692;SDS011;41590;53.366;5.212;2022-08-05T00:38:54;5.82;;;1.42;;
55692;SDS011;41590;53.366;5.212;2022-08-05T00:44:14;8.05;;;1.48;;
55692;SDS011;41590;53.366;5.212;2022-08-05T00:46:48;4.22;;;1.42;;
55692;SDS011;41590;53.366;5.212;2022-08-05T00:49:32;5.38;;;1.40;;
55692;SDS011;41590;53.366;5.212;2022-08-05T01:00:05;3.92;;;1.60;;
55692;SDS011;41590;53.366;5.212;2022-08-05T01:02:32;4.90;;;1.52;;
55692;SDS011;41590;53.366;5.212;2022-08-05T01:05:12;4.57;;;1.38;;
55692;SDS011;41590;53.366;5.212;2022-08-05T01:07:38;3.03;;;1.38;;
55692;SDS011;41590;53.366;5.212;2022-08-05T01:10:19;7.35;;;1.40;;
55692;SDS011;41590;53.366;5.212;2022-08-05T01:12:54;2.67;;;1.38;;
55692;SDS011;41590;53.366;5.212;2022-08-05T01:15:26;3.28;;;1.40;;
55692;SDS011;41590;53.366;5.212;2022-08-05T01:18:00;5.78;;;1.35;;
55692;SDS011;41590;53.366;5.212;2022-08-05T01:20:49;3.40;;;1.13;;
55692;SDS011;41590;53.366;5.212;2022-08-05T01:31:51;3.03;;;1.10;;
55692;SDS011;41590;53.366;5.212;2022-08-05T01:35:07;2.80;;;1.00;;
55692;SDS011;41590;53.366;5.212;2022-08-05T01:37:31;3.67;;;1.50;;
55692;SDS011;41590;53.366;5.212;2022-08-05T01:42:58;5.57;;;1.23;;
55692;SDS011;41590;53.366;5.212;2022-08-05T01:45:26;4.78;;;1.55;;
55692;SDS011;41590;53.366;5.212;2022-08-05T01:47:54;3.80;;;1.10;;
55692;SDS011;41590;53.366;5.212;2022-08-05T01:50:29;5.63;;;1.65;;
55692;SDS011;41590;53.366;5.212;2022-08-05T01:53:01;4.32;;;1.30;;
55692;SDS011;41590;53.366;5.212;2022-08-05T01:55:31;3.90;;;1.30;;
55692;SDS011;41590;53.366;5.212;2022-08-05T01:57:59;3.20;;;2.05;;
55692;SDS011;41590;53.366;5.212;2022-08-05T02:00:31;4.05;;;1.38;;
55692;SDS011;41590;53.366;5.212;2022-08-05T02:03:15;1.83;;;1.25;;
55692;SDS011;41590;53.366;5.212;2022-08-05T02:06:06;4.35;;;1.30;;
55692;SDS011;41590;53.366;5.212;2022-08-05T02:11:10;2.75;;;1.25;;
55692;SDS011;41590;53.366;5.212;2022-08-05T02:19:33;6.32;;;1.40;;
55692;SDS011;41590;53.366;5.212;2022-08-05T02:24:45;8.75;;;1.92;;
55692;SDS011;41590;53.366;5.212;2022-08-05T02:27:20;3.63;;;1.35;;
55692;SDS011;41590;53.366;5.212;2022-08-05T02:29:48;3.05;;;1.50;;
55692;SDS011;41590;53.366;5.212;2022-08-05T02:32:23;1.85;;;1.20;;
55692;SDS011;41590;53.366;5.212;2022-08-05T02:35:04;4.13;;;1.60;;
55692;SDS011;41590;53.366;5.212;2022-08-05T02:37:34;4.68;;;1.40;;
55692;SDS011;41590;53.366;5.212;2022-08-05T02:40:04;6.35;;;1.60;;
55692;SDS011;41590;53.366;5.212;2022-08-05T02:42:33;4.82;;;1.50;;
55692;SDS011;41590;53.366;5.212;2022-08-05T02:45:00;5.13;;;1.40;;
55692;SDS011;41590;53.366;5.212;2022-08-05T02:47:31;2.67;;;1.55;;
55692;SDS011;41590;53.366;5.212;2022-08-05T02:50:12;4.10;;;1.57;;
55692;SDS011;41590;53.366;5.212;2022-08-05T02:52:45;7.45;;;1.50;;
55692;SDS011;41590;53.366;5.212;2022-08-05T02:55:14;3.95;;;1.65;;
55692;SDS011;41590;53.366;5.212;2022-08-05T02:57:41;5.65;;;1.27;;
55692;SDS011;41590;53.366;5.212;2022-08-05T03:00:20;3.28;;;1.20;;
55692;SDS011;41590;53.366;5.212;2022-08-05T03:03:03;4.20;;;1.40;;
55692;SDS011;41590;53.366;5.212;2022-08-05T03:05:40;6.18;;;1.52;;
55692;SDS011;41590;53.366;5.212;2022-08-05T03:08:14;6.47;;;1.58;;
55692;SDS011;41590;53.366;5.212;2022-08-05T03:13:29;2.75;;;1.05;;
55692;SDS011;41590;53.366;5.212;2022-08-05T03:18:29;2.17;;;0.88;;
55692;SDS011;41590;53.366;5.212;2022-08-05T03:21:00;3.35;;;1.20;;
55692;SDS011;41590;53.366;5.212;2022-08-05T03:23:26;5.70;;;1.20;;
55692;SDS011;41590;53.366;5.212;2022-08-05T03:25:53;3.05;;;1.08;;
55692;SDS011;41590;53.366;5.212;2022-08-05T03:28:24;6.28;;;1.15;;
55692;SDS011;41590;53.366;5.212;2022-08-05T03:33:20;2.13;;;1.00;;
55692;SDS011;41590;53.366;5.212;2022-08-05T03:35:47;2.38;;;1.02;;
55692;SDS011;41590;53.366;5.212;2022-08-05T03:40:48;2.20;;;0.95;;
55692;SDS011;41590;53.366;5.212;2022-08-05T03:43:20;2.00;;;0.85;;
55692;SDS011;41590;53.366;5.212;2022-08-05T03:45:50;4.05;;;0.90;;
55692;SDS011;41590;53.366;5.212;2022-08-05T03:48:25;2.38;;;0.93;;
55692;SDS011;41590;53.366;5.212;2022-08-05T03:50:54;3.78;;;0.75;;
55692;SDS011;41590;53.366;5.212;2022-08-05T03:53:49;2.17;;;0.80;;
55692;SDS011;41590;53.366;5.212;2022-08-05T03:59:52;2.53;;;0.88;;
55692;SDS011;41590;53.366;5.212;2022-08-05T04:08:18;3.83;;;1.38;;
55692;SDS011;41590;53.366;5.212;2022-08-05T04:21:26;3.58;;;1.15;;
55692;SDS011;41590;53.366;5.212;2022-08-05T04:23:52;4.13;;;1.08;;
55692;SDS011;41590;53.366;5.212;2022-08-05T04:26:22;2.42;;;1.08;;
55692;SDS011;41590;53.366;5.212;2022-08-05T04:32:29;4.10;;;1.15;;
55692;SDS011;41590;53.366;5.212;2022-08-05T04:35:10;3.40;;;1.25;;
55692;SDS011;41590;53.366;5.212;2022-08-05T04:40:22;1.98;;;1.40;;
55692;SDS011;41590;53.366;5.212;2022-08-05T04:42:55;1.98;;;0.77;;
55692;SDS011;41590;53.366;5.212;2022-08-05T04:45:21;3.95;;;0.85;;
55692;SDS011;41590;53.366;5.212;2022-08-05T04:50:48;3.17;;;0.98;;
55692;SDS011;41590;53.366;5.212;2022-08-05T04:56:23;9.00;;;1.33;;
55692;SDS011;41590;53.366;5.212;2022-08-05T04:58:49;2.58;;;0.88;;
55692;SDS011;41590;53.366;5.212;2022-08-05T05:01:16;5.45;;;0.90;;
55692;SDS011;41590;53.366;5.212;2022-08-05T05:03:43;2.05;;;0.95;;
55692;SDS011;41590;53.366;5.212;2022-08-05T05:06:11;5.82;;;1.10;;
55692;SDS011;41590;53.366;5.212;2022-08-05T05:08:39;5.55;;;1.00;;
55692;SDS011;41590;53.366;5.212;2022-08-05T05:11:05;3.35;;;1.10;;
55692;SDS011;41590;53.366;5.212;2022-08-05T05:13:34;5.07;;;1.00;;
55692;SDS011;41590;53.366;5.212;2022-08-05T05:21:37;5.13;;;1.20;;
55692;SDS011;41590;53.366;5.212;2022-08-05T05:24:21;4.30;;;0.90;;
55692;SDS011;41590;53.366;5.212;2022-08-05T05:29:20;5.35;;;0.80;;
55692;SDS011;41590;53.366;5.212;2022-08-05T05:31:55;7.15;;;0.90;;
55692;SDS011;41590;53.366;5.212;2022-08-05T05:34:24;3.17;;;0.63;;
55692;SDS011;41590;53.366;5.212;2022-08-05T05:36:59;3.58;;;1.02;;
55692;SDS011;41590;53.366;5.212;2022-08-05T05:39:36;3.03;;;0.80;;
55692;SDS011;41590;53.366;5.212;2022-08-05T05:42:10;3.10;;;0.82;;
55692;SDS011;41590;53.366;5.212;2022-08-05T05:44:35;3.72;;;0.68;;
55692;SDS011;41590;53.366;5.212;2022-08-05T05:53:15;6.28;;;0.75;;
55692;SDS011;41590;53.366;5.212;2022-08-05T05:55:41;3.50;;;0.68;;
55692;SDS011;41590;53.366;5.212;2022-08-05T06:04:01;4.60;;;0.70;;
55692;SDS011;41590;53.366;5.212;2022-08-05T06:06:27;3.78;;;0.60;;
55692;SDS011;41590;53.366;5.212;2022-08-05T06:09:03;4.65;;;0.68;;
55692;SDS011;41590;53.366;5.212;2022-08-05T06:11:45;3.63;;;0.80;;
55692;SDS011;41590;53.366;5.212;2022-08-05T06:14:26;2.92;;;0.40;;
55692;SDS011;41590;53.366;5.212;2022-08-05T06:19:50;3.95;;;0.85;;
55692;SDS011;41590;53.366;5.212;2022-08-05T06:22:21;1.92;;;0.43;;
55692;SDS011;41590;53.366;5.212;2022-08-05T06:24:57;2.50;;;0.50;;
55692;SDS011;41590;53.366;5.212;2022-08-05T06:32:36;4.90;;;0.43;;
55692;SDS011;41590;53.366;5.212;2022-08-05T06:40:47;2.95;;;0.50;;
55692;SDS011;41590;53.366;5.212;2022-08-05T06:48:39;5.18;;;0.40;;
55692;SDS011;41590;53.366;5.212;2022-08-05T06:51:07;3.00;;;0.52;;
55692;SDS011;41590;53.366;5.212;2022-08-05T06:53:43;2.85;;;0.20;;
55692;SDS011;41590;53.366;5.212;2022-08-05T06:56:16;5.07;;;0.43;;
55692;SDS011;41590;53.366;5.212;2022-08-05T07:01:51;2.33;;;0.30;;
55692;SDS011;41590;53.366;5.212;2022-08-05T07:04:25;4.05;;;0.47;;
55692;SDS011;41590;53.366;5.212;2022-08-05T07:06:52;1.67;;;0.47;;
55692;SDS011;41590;53.366;5.212;2022-08-05T07:09:20;1.30;;;0.25;;
55692;SDS011;41590;53.366;5.212;2022-08-05T07:11:46;3.50;;;0.32;;
55692;SDS011;41590;53.366;5.212;2022-08-05T07:14:22;1.85;;;0.30;;
55692;SDS011;41590;53.366;5.212;2022-08-05T07:17:16;3.38;;;0.25;;
55692;SDS011;41590;53.366;5.212;2022-08-05T07:19:43;2.45;;;0.35;;
55692;SDS011;41590;53.366;5.212;2022-08-05T07:22:15;2.47;;;0.30;;
55692;SDS011;41590;53.366;5.212;2022-08-05T07:24:41;1.85;;;0.68;;
55692;SDS011;41590;53.366;5.212;2022-08-05T07:27:09;1.95;;;0.52;;
55692;SDS011;41590;53.366;5.212;2022-08-05T07:29:42;3.03;;;0.40;;
55692;SDS011;41590;53.366;5.212;2022-08-05T07:32:22;2.47;;;0.20;;
55692;SDS011;41590;53.366;5.212;2022-08-05T07:40:22;1.05;;;0.30;;
55692;SDS011;41590;53.366;5.212;2022-08-05T07:42:55;1.27;;;0.20;;
55692;SDS011;41590;53.366;5.212;2022-08-05T07:45:21;2.33;;;0.20;;
55692;SDS011;41590;53.366;5.212;2022-08-05T07:47:51;1.25;;;0.20;;
55692;SDS011;41590;53.366;5.212;2022-08-05T07:50:44;1.85;;;0.30;;
55692;SDS011;41590;53.366;5.212;2022-08-05T07:53:15;1.88;;;0.30;;
55692;SDS011;41590;53.366;5.212;2022-08-05T07:55:43;2.70;;;0.50;;
55692;SDS011;41590;53.366;5.212;2022-08-05T07:58:11;4.25;;;0.40;;
55692;SDS011;41590;53.366;5.212;2022-08-05T08:00:37;4.30;;;0.30;;
55692;SDS011;41590;53.366;5.212;2022-08-05T08:03:09;1.05;;;0.20;;
55692;SDS011;41590;53.366;5.212;2022-08-05T08:05:53;0.55;;;0.13;;
55692;SDS011;41590;53.366;5.212;2022-08-05T08:08:22;1.38;;;0.40;;
55692;SDS011;41590;53.366;5.212;2022-08-05T08:10:48;2.25;;;0.30;;
55692;SDS011;41590;53.366;5.212;2022-08-05T08:16:00;1.63;;;0.20;;
55692;SDS011;41590;53.366;5.212;2022-08-05T08:18:27;1.30;;;0.17;;
55692;SDS011;41590;53.366;5.212;2022-08-05T08:23:32;1.23;;;0.30;;
55692;SDS011;41590;53.366;5.212;2022-08-05T08:26:00;0.77;;;0.30;;
55692;SDS011;41590;53.366;5.212;2022-08-05T08:28:26;0.82;;;0.20;;
55692;SDS011;41590;53.366;5.212;2022-08-05T08:31:02;2.13;;;0.40;;
55692;SDS011;41590;53.366;5.212;2022-08-05T08:33:31;3.80;;;0.30;;
55692;SDS011;41590;53.366;5.212;2022-08-05T08:35:59;1.02;;;0.25;;
55692;SDS011;41590;53.366;5.212;2022-08-05T08:38:28;0.50;;;0.20;;
55692;SDS011;41590;53.366;5.212;2022-08-05T08:40:56;2.78;;;0.17;;
55692;SDS011;41590;53.366;5.212;2022-08-05T08:43:27;2.25;;;0.32;;
55692;SDS011;41590;53.366;5.212;2022-08-05T08:45:54;1.50;;;0.50;;
55692;SDS011;41590;53.366;5.212;2022-08-05T08:48:38;1.13;;;0.20;;
55692;SDS011;41590;53.366;5.212;2022-08-05T08:51:10;2.45;;;0.30;;
55692;SDS011;41590;53.366;5.212;2022-08-05T08:53:37;2.10;;;0.50;;
55692;SDS011;41590;53.366;5.212;2022-08-05T08:56:29;1.42;;;0.30;;
55692;SDS011;41590;53.366;5.212;2022-08-05T08:59:03;0.95;;;0.20;;
55692;SDS011;41590;53.366;5.212;2022-08-05T09:01:35;3.03;;;0.20;;
55692;SDS011;41590;53.366;5.212;2022-08-05T09:07:04;1.17;;;0.30;;
55692;SDS011;41590;53.366;5.212;2022-08-05T09:09:34;2.63;;;0.38;;
55692;SDS011;41590;53.366;5.212;2022-08-05T09:12:23;1.70;;;0.47;;
55692;SDS011;41590;53.366;5.212;2022-08-05T09:15:00;2.80;;;0.30;;
55692;SDS011;41590;53.366;5.212;2022-08-05T09:17:27;1.38;;;0.30;;
55692;SDS011;41590;53.366;5.212;2022-08-05T09:22:28;2.22;;;0.40;;
55692;SDS011;41590;53.366;5.212;2022-08-05T09:25:39;1.45;;;0.22;;
55692;SDS011;41590;53.366;5.212;2022-08-05T09:33:54;1.73;;;0.57;;
55692;SDS011;41590;53.366;5.212;2022-08-05T09:40:02;1.65;;;0.20;;
55692;SDS011;41590;53.366;5.212;2022-08-05T09:42:41;1.30;;;0.30;;
55692;SDS011;41590;53.366;5.212;2022-08-05T09:45:07;1.50;;;0.30;;
55692;SDS011;41590;53.366;5.212;2022-08-05T09:47:34;1.02;;;0.20;;
55692;SDS011;41590;53.366;5.212;2022-08-05T09:55:43;2.17;;;0.50;;
55692;SDS011;41590;53.366;5.212;2022-08-05T09:58:27;2.72;;;0.52;;
55692;SDS011;41590;53.366;5.212;2022-08-05T10:00:57;2.15;;;0.20;;
55692;SDS011;41590;53.366;5.212;2022-08-05T10:03:36;4.00;;;0.30;;
55692;SDS011;41590;53.366;5.212;2022-08-05T10:12:23;0.88;;;0.17;;
55692;SDS011;41590;53.366;5.212;2022-08-05T10:20:38;2.25;;;0.30;;
55692;SDS011;41590;53.366;5.212;2022-08-05T10:32:17;2.45;;;0.20;;
55692;SDS011;41590;53.366;5.212;2022-08-05T10:49:28;3.45;;;0.30;;
55692;SDS011;41590;53.366;5.212;2022-08-05T10:51:58;3.45;;;0.20;;
55692;SDS011;41590;53.366;5.212;2022-08-05T10:57:40;1.30;;;0.20;;
55692;SDS011;41590;53.366;5.212;2022-08-05T11:05:39;0.73;;;0.22;;
55692;SDS011;41590;53.366;5.212;2022-08-05T11:08:09;2.40;;;0.30;;
55692;SDS011;41590;53.366;5.212;2022-08-05T11:14:29;4.15;;;0.30;;
55692;SDS011;41590;53.366;5.212;2022-08-05T11:19:57;1.42;;;0.30;;
55692;SDS011;41590;53.366;5.212;2022-08-05T11:36:39;0.55;;;0.20;;
55692;SDS011;41590;53.366;5.212;2022-08-05T11:39:13;1.35;;;0.20;;
55692;SDS011;41590;53.366;5.212;2022-08-05T11:41:48;1.75;;;0.20;;
55692;SDS011;41590;53.366;5.212;2022-08-05T11:44:16;0.63;;;0.13;;
55692;SDS011;41590;53.366;5.212;2022-08-05T11:46:52;2.17;;;0.20;;
55692;SDS011;41590;53.366;5.212;2022-08-05T11:49:20;1.10;;;0.20;;
55692;SDS011;41590;53.366;5.212;2022-08-05T11:54:50;1.98;;;0.30;;
55692;SDS011;41590;53.366;5.212;2022-08-05T12:01:01;1.63;;;0.22;;
55692;SDS011;41590;53.366;5.212;2022-08-05T12:09:05;22.45;;;3.83;;
55692;SDS011;41590;53.366;5.212;2022-08-05T12:11:32;15.35;;;2.80;;
55692;SDS011;41590;53.366;5.212;2022-08-05T12:26:02;17.05;;;2.15;;
55692;SDS011;41590;53.366;5.212;2022-08-05T12:28:35;14.40;;;1.83;;
55692;SDS011;41590;53.366;5.212;2022-08-05T12:31:17;12.45;;;1.30;;
55692;SDS011;41590;53.366;5.212;2022-08-05T12:36:16;9.70;;;1.35;;
55692;SDS011;41590;53.366;5.212;2022-08-05T12:38:45;12.55;;;1.30;;
55692;SDS011;41590;53.366;5.212;2022-08-05T12:41:16;8.15;;;1.48;;
55692;SDS011;41590;53.366;5.212;2022-08-05T12:43:53;11.45;;;1.10;;
55692;SDS011;41590;53.366;5.212;2022-08-05T12:49:21;8.75;;;1.40;;
55692;SDS011;41590;53.366;5.212;2022-08-05T12:51:50;10.13;;;1.10;;
55692;SDS011;41590;53.366;5.212;2022-08-05T12:57:05;7.50;;;0.80;;
55692;SDS011;41590;53.366;5.212;2022-08-05T12:59:45;5.28;;;0.88;;
55692;SDS011;41590;53.366;5.212;2022-08-05T13:05:52;4.13;;;1.05;;
55692;SDS011;41590;53.366;5.212;2022-08-05T13:11:16;6.78;;;1.42;;
55692;SDS011;41590;53.366;5.212;2022-08-05T13:13:48;5.88;;;1.20;;
55692;SDS011;41590;53.366;5.212;2022-08-05T13:19:36;7.53;;;0.82;;
55692;SDS011;41590;53.366;5.212;2022-08-05T13:22:09;7.13;;;0.77;;
55692;SDS011;41590;53.366;5.212;2022-08-05T13:24:44;5.55;;;0.50;;
55692;SDS011;41590;53.366;5.212;2022-08-05T13:27:28;4.93;;;0.77;;
55692;SDS011;41590;53.366;5.212;2022-08-05T13:32:53;3.38;;;0.52;;
55692;SDS011;41590;53.366;5.212;2022-08-05T13:35:20;3.08;;;0.52;;
55692;SDS011;41590;53.366;5.212;2022-08-05T13:37:55;1.50;;;0.50;;
55692;SDS011;41590;53.366;5.212;2022-08-05T13:43:07;5.05;;;0.57;;
55692;SDS011;41590;53.366;5.212;2022-08-05T13:54:18;7.35;;;1.02;;
55692;SDS011;41590;53.366;5.212;2022-08-05T13:56:51;3.85;;;1.02;;
55692;SDS011;41590;53.366;5.212;2022-08-05T14:01:47;7.50;;;0.90;;
55692;SDS011;41590;53.366;5.212;2022-08-05T14:04:31;6.70;;;0.93;;
55692;SDS011;41590;53.366;5.212;2022-08-05T14:07:18;3.75;;;1.10;;
55692;SDS011;41590;53.366;5.212;2022-08-05T14:09:53;4.45;;;0.60;;
55692;SDS011;41590;53.366;5.212;2022-08-05T14:12:28;4.78;;;1.00;;
55692;SDS011;41590;53.366;5.212;2022-08-05T14:14:57;5.03;;;0.70;;
55692;SDS011;41590;53.366;5.212;2022-08-05T14:17:23;4.63;;;0.50;;
55692;SDS011;41590;53.366;5.212;2022-08-05T14:19:52;3.58;;;0.40;;
55692;SDS011;41590;53.366;5.212;2022-08-05T14:25:07;3.33;;;0.70;;
55692;SDS011;41590;53.366;5.212;2022-08-05T14:27:38;2.80;;;0.70;;
55692;SDS011;41590;53.366;5.212;2022-08-05T14:30:17;3.70;;;0.85;;
55692;SDS011;41590;53.366;5.212;2022-08-05T14:32:43;2.38;;;0.70;;
55692;SDS011;41590;53.366;5.212;2022-08-05T14:35:11;2.13;;;0.45;;
55692;SDS011;41590;53.366;5.212;2022-08-05T14:37:46;1.60;;;0.40;;
55692;SDS011;41590;53.366;5.212;2022-08-05T14:40:12;2.92;;;0.63;;
55692;SDS011;41590;53.366;5.212;2022-08-05T14:42:41;1.50;;;0.50;;
55692;SDS011;41590;53.366;5.212;2022-08-05T14:45:16;0.50;;;0.20;;
55692;SDS011;41590;53.366;5.212;2022-08-05T14:50:39;1.90;;;0.35;;
55692;SDS011;41590;53.366;5.212;2022-08-05T14:53:06;2.40;;;0.50;;
55692;SDS011;41590;53.366;5.212;2022-08-05T14:55:33;4.38;;;0.40;;
55692;SDS011;41590;53.366;5.212;2022-08-05T14:57:59;1.45;;;0.20;;
55692;SDS011;41590;53.366;5.212;2022-08-05T15:00:24;1.70;;;0.40;;
55692;SDS011;41590;53.366;5.212;2022-08-05T15:02:53;0.82;;;0.35;;
55692;SDS011;41590;53.366;5.212;2022-08-05T15:05:20;4.47;;;0.43;;
55692;SDS011;41590;53.366;5.212;2022-08-05T15:07:46;2.45;;;0.50;;
55692;SDS011;41590;53.366;5.212;2022-08-05T15:12:45;2.45;;;0.32;;
55692;SDS011;41590;53.366;5.212;2022-08-05T15:15:18;2.53;;;0.40;;
55692;SDS011;41590;53.366;5.212;2022-08-05T15:20:14;2.17;;;0.70;;
55692;SDS011;41590;53.366;5.212;2022-08-05T15:22:41;3.55;;;0.43;;
55692;SDS011;41590;53.366;5.212;2022-08-05T15:25:09;2.58;;;0.40;;
55692;SDS011;41590;53.366;5.212;2022-08-05T15:27:51;1.30;;;0.40;;
55692;SDS011;41590;53.366;5.212;2022-08-05T15:32:55;4.53;;;0.52;;
55692;SDS011;41590;53.366;5.212;2022-08-05T15:35:40;3.70;;;0.38;;
55692;SDS011;41590;53.366;5.212;2022-08-05T15:38:09;3.65;;;0.70;;
55692;SDS011;41590;53.366;5.212;2022-08-05T15:40:41;4.35;;;0.77;;
55692;SDS011;41590;53.366;5.212;2022-08-05T15:43:15;2.10;;;0.50;;
55692;SDS011;41590;53.366;5.212;2022-08-05T15:45:45;2.50;;;0.38;;
55692;SDS011;41590;53.366;5.212;2022-08-05T15:48:14;2.67;;;0.50;;
55692;SDS011;41590;53.366;5.212;2022-08-05T15:50:41;3.30;;;0.30;;
55692;SDS011;41590;53.366;5.212;2022-08-05T15:53:10;2.83;;;0.40;;
55692;SDS011;41590;53.366;5.212;2022-08-05T15:55:37;4.32;;;0.30;;
55692;SDS011;41590;53.366;5.212;2022-08-05T15:58:03;2.80;;;0.45;;
55692;SDS011;41590;53.366;5.212;2022-08-05T16:03:20;4.18;;;0.50;;
55692;SDS011;41590;53.366;5.212;2022-08-05T16:08:14;0.80;;;0.25;;
55692;SDS011;41590;53.366;5.212;2022-08-05T16:10:47;1.90;;;0.35;;
55692;SDS011;41590;53.366;5.212;2022-08-05T16:18:19;1.92;;;0.40;;
55692;SDS011;41590;53.366;5.212;2022-08-05T16:23:47;2.70;;;0.50;;
55692;SDS011;41590;53.366;5.212;2022-08-05T16:29:54;1.85;;;0.40;;
55692;SDS011;41590;53.366;5.212;2022-08-05T16:32:20;4.75;;;0.55;;
55692;SDS011;41590;53.366;5.212;2022-08-05T16:34:55;2.17;;;0.52;;
55692;SDS011;41590;53.366;5.212;2022-08-05T16:39:53;1.83;;;0.47;;
55692;SDS011;41590;53.366;5.212;2022-08-05T16:45:37;5.05;;;0.80;;
55692;SDS011;41590;53.366;5.212;2022-08-05T16:48:04;3.55;;;0.70;;
55692;SDS011;41590;53.366;5.212;2022-08-05T16:50:35;4.80;;;1.00;;
55692;SDS011;41590;53.366;5.212;2022-08-05T16:58:31;6.60;;;0.70;;
55692;SDS011;41590;53.366;5.212;2022-08-05T17:00:57;5.43;;;0.75;;
55692;SDS011;41590;53.366;5.212;2022-08-05T17:03:24;5.22;;;1.13;;
55692;SDS011;41590;53.366;5.212;2022-08-05T17:08:50;5.78;;;0.95;;
55692;SDS011;41590;53.366;5.212;2022-08-05T17:11:22;5.28;;;0.80;;
55692;SDS011;41590;53.366;5.212;2022-08-05T17:13:53;3.07;;;0.80;;
55692;SDS011;41590;53.366;5.212;2022-08-05T17:16:21;2.78;;;0.85;;
55692;SDS011;41590;53.366;5.212;2022-08-05T17:21:39;4.75;;;0.80;;
55692;SDS011;41590;53.366;5.212;2022-08-05T17:24:10;4.28;;;0.70;;
55692;SDS011;41590;53.366;5.212;2022-08-05T17:26:36;3.85;;;0.60;;
55692;SDS011;41590;53.366;5.212;2022-08-05T17:29:09;10.13;;;1.02;;
55692;SDS011;41590;53.366;5.212;2022-08-05T17:39:52;5.50;;;0.93;;
55692;SDS011;41590;53.366;5.212;2022-08-05T17:42:17;3.03;;;0.60;;
55692;SDS011;41590;53.366;5.212;2022-08-05T17:44:43;6.72;;;1.30;;
55692;SDS011;41590;53.366;5.212;2022-08-05T17:47:09;2.75;;;0.63;;
55692;SDS011;41590;53.366;5.212;2022-08-05T17:49:40;4.07;;;0.98;;
55692;SDS011;41590;53.366;5.212;2022-08-05T17:52:07;3.42;;;0.63;;
55692;SDS011;41590;53.366;5.212;2022-08-05T17:54:33;4.72;;;0.73;;
55692;SDS011;41590;53.366;5.212;2022-08-05T18:00:22;7.05;;;1.00;;
55692;SDS011;41590;53.366;5.212;2022-08-05T18:02:50;6.70;;;0.90;;
55692;SDS011;41590;53.366;5.212;2022-08-05T18:05:17;4.68;;;1.00;;
55692;SDS011;41590;53.366;5.212;2022-08-05T18:07:44;4.30;;;0.70;;
55692;SDS011;41590;53.366;5.212;2022-08-05T18:10:11;6.13;;;0.47;;
55692;SDS011;41590;53.366;5.212;2022-08-05T18:12:37;5.13;;;0.73;;
55692;SDS011;41590;53.366;5.212;2022-08-05T18:15:03;2.03;;;0.47;;
55692;SDS011;41590;53.366;5.212;2022-08-05T18:17:29;3.40;;;0.68;;
55692;SDS011;41590;53.366;5.212;2022-08-05T18:19:57;4.57;;;0.75;;
55692;SDS011;41590;53.366;5.212;2022-08-05T18:22:23;3.25;;;0.90;;
55692;SDS011;41590;53.366;5.212;2022-08-05T18:24:48;4.63;;;0.70;;
55692;SDS011;41590;53.366;5.212;2022-08-05T18:27:14;6.63;;;0.68;;
55692;SDS011;41590;53.366;5.212;2022-08-05T18:29:42;8.25;;;0.90;;
55692;SDS011;41590;53.366;5.212;2022-08-05T18:34:55;5.00;;;0.70;;
55692;SDS011;41590;53.366;5.212;2022-08-05T18:37:21;11.02;;;0.95;;
55692;SDS011;41590;53.366;5.212;2022-08-05T18:39:47;5.93;;;0.80;;
55692;SDS011;41590;53.366;5.212;2022-08-05T18:42:14;5.68;;;0.60;;
55692;SDS011;41590;53.366;5.212;2022-08-05T18:44:40;6.18;;;0.70;;
55692;SDS011;41590;53.366;5.212;2022-08-05T18:47:05;2.05;;;0.70;;
55692;SDS011;41590;53.366;5.212;2022-08-05T18:49:32;6.13;;;0.77;;
55692;SDS011;41590;53.366;5.212;2022-08-05T18:52:16;4.82;;;0.70;;
55692;SDS011;41590;53.366;5.212;2022-08-05T18:55:03;3.45;;;0.68;;
55692;SDS011;41590;53.366;5.212;2022-08-05T18:57:38;4.13;;;0.60;;
55692;SDS011;41590;53.366;5.212;2022-08-05T19:00:06;4.40;;;0.55;;
55692;SDS011;41590;53.366;5.212;2022-08-05T19:02:38;4.18;;;0.88;;
55692;SDS011;41590;53.366;5.212;2022-08-05T19:07:50;1.92;;;0.47;;
55692;SDS011;41590;53.366;5.212;2022-08-05T19:10:19;2.60;;;0.40;;
55692;SDS011;41590;53.366;5.212;2022-08-05T19:12:49;3.13;;;0.40;;
55692;SDS011;41590;53.366;5.212;2022-08-05T19:15:16;4.57;;;0.52;;
55692;SDS011;41590;53.366;5.212;2022-08-05T19:17:43;2.97;;;0.50;;
55692;SDS011;41590;53.366;5.212;2022-08-05T19:20:09;2.55;;;0.55;;
55692;SDS011;41590;53.366;5.212;2022-08-05T19:22:38;3.55;;;0.60;;
55692;SDS011;41590;53.366;5.212;2022-08-05T19:28:22;4.28;;;0.60;;
55692;SDS011;41590;53.366;5.212;2022-08-05T19:30:47;2.10;;;0.43;;
55692;SDS011;41590;53.366;5.212;2022-08-05T19:33:15;4.05;;;0.70;;
55692;SDS011;41590;53.366;5.212;2022-08-05T19:35:46;3.67;;;0.30;;
55692;SDS011;41590;53.366;5.212;2022-08-05T19:38:20;1.05;;;0.35;;
55692;SDS011;41590;53.366;5.212;2022-08-05T19:40:48;4.88;;;0.70;;
55692;SDS011;41590;53.366;5.212;2022-08-05T19:43:31;8.10;;;0.60;;
55692;SDS011;41590;53.366;5.212;2022-08-05T19:46:13;4.35;;;0.50;;
55692;SDS011;41590;53.366;5.212;2022-08-05T19:52:18;7.47;;;0.50;;
55692;SDS011;41590;53.366;5.212;2022-08-05T19:57:53;2.65;;;0.47;;
55692;SDS011;41590;53.366;5.212;2022-08-05T20:00:22;2.85;;;0.40;;
55692;SDS011;41590;53.366;5.212;2022-08-05T20:02:48;3.72;;;0.63;;
55692;SDS011;41590;53.366;5.212;2022-08-05T20:05:25;3.08;;;0.40;;
55692;SDS011;41590;53.366;5.212;2022-08-05T20:07:53;3.70;;;0.50;;
55692;SDS011;41590;53.366;5.212;2022-08-05T20:10:19;1.98;;;0.38;;
55692;SDS011;41590;53.366;5.212;2022-08-05T20:15:35;6.63;;;0.70;;
55692;SDS011;41590;53.366;5.212;2022-08-05T20:18:11;2.22;;;0.20;;
55692;SDS011;41590;53.366;5.212;2022-08-05T20:20:41;5.88;;;1.10;;
55692;SDS011;41590;53.366;5.212;2022-08-05T20:23:16;3.35;;;0.30;;
55692;SDS011;41590;53.366;5.212;2022-08-05T20:25:46;3.50;;;0.40;;
55692;SDS011;41590;53.366;5.212;2022-08-05T20:28:15;2.13;;;0.40;;
55692;SDS011;41590;53.366;5.212;2022-08-05T20:30:43;6.45;;;0.93;;
55692;SDS011;41590;53.366;5.212;2022-08-05T20:33:10;3.50;;;0.45;;
55692;SDS011;41590;53.366;5.212;2022-08-05T20:35:41;3.50;;;0.40;;
55692;SDS011;41590;53.366;5.212;2022-08-05T20:38:12;1.17;;;0.40;;
55692;SDS011;41590;53.366;5.212;2022-08-05T20:43:42;4.03;;;0.63;;
55692;SDS011;41590;53.366;5.212;2022-08-05T20:46:07;4.28;;;0.32;;
55692;SDS011;41590;53.366;5.212;2022-08-05T20:48:40;2.53;;;0.30;;
55692;SDS011;41590;53.366;5.212;2022-08-05T20:51:19;1.67;;;0.38;;
55692;SDS011;41590;53.366;5.212;2022-08-05T20:53:45;3.35;;;0.22;;
55692;SDS011;41590;53.366;5.212;2022-08-05T20:56:14;5.05;;;0.60;;
55692;SDS011;41590;53.366;5.212;2022-08-05T20:58:40;5.80;;;0.55;;
55692;SDS011;41590;53.366;5.212;2022-08-05T21:01:21;4.32;;;0.65;;
55692;SDS011;41590;53.366;5.212;2022-08-05T21:03:59;2.70;;;0.60;;
55692;SDS011;41590;53.366;5.212;2022-08-05T21:06:25;5.68;;;0.32;;
55692;SDS011;41590;53.366;5.212;2022-08-05T21:08:53;1.30;;;0.28;;
55692;SDS011;41590;53.366;5.212;2022-08-05T21:11:26;3.70;;;0.50;;
55692;SDS011;41590;53.366;5.212;2022-08-05T21:19:00;5.15;;;0.40;;
55692;SDS011;41590;53.366;5.212;2022-08-05T21:24:20;4.30;;;0.80;;